.
WxDataArchive / Data Records for 2010-05-13
2010-05-12 May 2010 2010-05-14

Data Records for Thursday, 13 May 2010

Time	Temp	Chill	HIndex	Humid	Dewpt	 Wind 	HiWind	WindDir	Rain 	Barom 
-----	----	-----	------	-----	-----	------	------	-------	-----	----- 
00:00	48.2	48.2	48.2	87	44.5	3	11	90	0.00	30.212 
00:05	48.2	48.2	48.2	87	44.5	3	9	90	0.00	30.212 
00:10	48.0	48.0	48.0	87	44.3	3	9	90	0.00	30.212 
00:15	47.9	47.9	47.9	86	43.9	3	10	112	0.00	30.229 
00:20	47.9	47.9	47.9	86	43.9	3	7	112	0.00	30.229 
00:25	47.9	47.9	47.9	86	43.9	2	6	112	0.00	30.229 
00:30	47.7	47.7	47.7	86	43.7	3	7	112	0.00	30.227 
00:35	47.6	47.6	47.6	86	43.6	2	5	90	0.00	30.227 
00:40	47.6	47.6	47.6	86	43.6	2	5	90	0.00	30.227 
00:45	47.4	47.4	47.4	86	43.4	3	7	112	0.00	30.213 
00:50	47.3	47.3	47.3	86	43.3	3	5	68	0.00	30.213 
00:55	47.1	47.1	47.1	86	43.1	3	7	112	0.00	30.213 
01:00	47.1	47.1	47.1	86	43.1	3	6	90	0.00	30.209 
01:05	47.0	47.0	47.0	86	43.0	3	5	90	0.00	30.209 
01:10	47.0	45.4	47.0	86	43.0	4	7	112	0.00	30.209 
01:15	46.8	46.8	46.8	87	43.1	3	6	90	0.00	30.192 
01:20	46.8	46.8	46.8	87	43.1	3	11	90	0.00	30.192 
01:25	46.8	46.8	46.8	87	43.1	2	6	112	0.00	30.192 
01:30	46.8	46.8	46.8	88	43.4	1	4	90	0.00	30.199 
01:35	46.8	46.8	46.8	88	43.4	2	5	112	0.00	30.199 
01:40	46.8	46.8	46.8	88	43.4	3	5	112	0.00	30.199 
01:45	46.8	46.8	46.8	88	43.4	2	5	112	0.00	30.190 
01:50	46.8	46.8	46.8	88	43.4	3	6	112	0.00	30.190 
01:55	46.8	46.8	46.8	89	43.7	2	4	112	0.00	30.190 
02:00	46.8	46.8	46.8	89	43.7	2	6	112	0.00	30.189 
02:05	46.7	45.1	46.7	89	43.6	4	11	90	0.00	30.189 
02:10	46.7	46.7	46.7	89	43.6	2	5	112	0.00	30.189 
02:15	46.7	46.7	46.7	89	43.6	2	6	90	0.00	30.193 
02:20	46.8	46.8	46.8	89	43.7	2	5	68	0.00	30.193 
02:25	46.8	46.8	46.8	90	44.0	3	6	90	0.00	30.193 
02:30	46.7	46.7	46.7	90	43.9	3	6	90	0.00	30.173 
02:35	46.7	46.7	46.7	90	43.9	3	10	90	0.00	30.173 
02:40	46.7	46.7	46.7	90	43.9	3	6	90	0.00	30.173 
02:45	46.5	44.8	46.5	90	43.7	4	13	90	0.00	30.164 
02:50	46.5	44.8	46.5	90	43.7	4	7	90	0.00	30.164 
02:55	46.5	46.5	46.5	90	43.7	3	6	112	0.00	30.164 
03:00	46.5	46.5	46.5	90	43.7	3	7	90	0.00	30.147 
03:05	46.5	44.1	46.5	91	44.0	5	9	90	0.00	30.147 
03:10	46.5	46.5	46.5	91	44.0	3	6	112	0.00	30.147 
03:15	46.5	46.5	46.5	91	44.0	3	6	90	0.00	30.142 
03:20	46.5	46.5	46.5	91	44.0	3	6	90	0.00	30.142 
03:25	46.7	46.7	46.7	91	44.2	3	8	112	0.00	30.142 
03:30	46.5	46.5	46.5	92	44.3	3	10	112	0.00	30.141 
03:35	46.5	46.5	46.5	92	44.3	2	6	90	0.00	30.141 
03:40	46.5	46.5	46.5	92	44.3	2	5	68	0.00	30.141 
03:45	46.5	44.8	46.5	92	44.3	4	11	112	0.01	30.123 
03:50	46.5	46.5	46.5	92	44.3	3	7	90	0.01	30.123 
03:55	46.4	46.4	46.4	93	44.5	3	6	90	0.00	30.123 
04:00	46.4	46.4	46.4	93	44.5	2	6	90	0.00	30.119 
04:05	46.4	46.4	46.4	93	44.5	3	7	90	0.00	30.119 
04:10	46.4	46.4	46.4	94	44.8	3	12	90	0.00	30.119 
04:15	46.4	46.4	46.4	94	44.8	3	6	112	0.00	30.118 
04:20	46.4	44.7	46.4	94	44.8	4	11	112	0.00	30.118 
04:25	46.4	46.4	46.4	94	44.8	3	6	90	0.00	30.118 
04:30	46.4	46.4	46.4	94	44.8	3	6	90	0.00	30.113 
04:35	46.4	46.4	46.4	94	44.8	2	6	112	0.01	30.113 
04:40	46.4	46.4	46.4	94	44.8	3	8	90	0.00	30.113 
04:45	46.4	46.4	46.4	94	44.8	2	5	112	0.00	30.106 
04:50	46.4	46.4	46.4	94	44.8	2	5	112	0.00	30.106 
04:55	46.4	46.4	46.4	94	44.8	2	5	112	0.00	30.106 
05:00	46.5	46.5	46.5	94	44.9	2	5	112	0.00	30.103 
05:05	46.5	46.5	46.5	94	44.9	2	5	112	0.00	30.103 
05:10	46.5	46.5	46.5	94	44.9	3	6	90	0.03	30.103 
05:15	46.5	46.5	46.5	94	44.9	2	5	90	0.01	30.088 
05:20	46.5	46.5	46.5	95	45.1	3	5	112	0.01	30.088 
05:25	46.4	44.7	46.4	95	45.0	4	11	112	0.01	30.088 
05:30	46.5	46.5	46.5	95	45.1	3	7	90	0.00	30.076 
05:35	46.5	46.5	46.5	95	45.1	3	7	90	0.00	30.076 
05:40	46.5	46.5	46.5	95	45.1	3	5	90	0.00	30.076 
05:45	46.5	46.5	46.5	95	45.1	3	7	90	0.00	30.070 
05:50	46.5	46.5	46.5	95	45.1	2	5	112	0.00	30.070 
05:55	46.7	46.7	46.7	95	45.3	3	5	90	0.00	30.070 
06:00	46.7	46.7	46.7	95	45.3	2	5	112	0.00	30.063 
06:05	46.7	46.7	46.7	95	45.3	3	6	112	0.00	30.063 
06:10	46.8	46.8	46.8	96	45.7	2	5	90	0.00	30.063 
06:15	46.8	46.8	46.8	96	45.7	2	5	90	0.00	30.061 
06:20	46.8	46.8	46.8	96	45.7	2	6	90	0.00	30.061 
06:25	47.0	47.0	47.0	96	45.9	2	6	90	0.00	30.061 
06:30	47.0	47.0	47.0	96	45.9	2	6	112	0.00	30.057 
06:35	47.0	47.0	47.0	96	45.9	2	4	112	0.00	30.057 
06:40	47.0	47.0	47.0	96	45.9	2	6	90	0.00	30.057 
06:45	47.0	47.0	47.0	96	45.9	2	4	90	0.00	30.057 
06:50	47.0	47.0	47.0	96	45.9	2	5	112	0.00	30.057 
06:55	47.1	47.1	47.1	96	46.0	2	5	90	0.00	30.057 
07:00	47.1	47.1	47.1	96	46.0	2	6	112	0.00	30.041 
07:05	47.1	47.1	47.1	96	46.0	2	3	90	0.00	30.041 
07:10	47.3	47.3	47.3	96	46.2	2	5	112	0.00	30.041 
07:15	47.3	47.3	47.3	96	46.2	2	5	112	0.00	30.034 
07:20	47.4	47.4	47.4	96	46.3	2	6	112	0.00	30.034 
07:25	47.6	47.6	47.6	96	46.5	2	5	90	0.00	30.034 
07:30	47.6	47.6	47.6	96	46.5	2	5	112	0.00	30.039 
07:35	47.7	47.7	47.7	96	46.6	1	5	135	0.00	30.039 
07:40	47.9	47.9	47.9	96	46.8	1	4	90	0.00	30.039 
07:45	48.0	48.0	48.0	96	46.9	1	4	90	0.00	30.038 
07:50	48.2	48.2	48.2	96	47.1	2	4	90	0.00	30.038 
07:55	48.3	48.3	48.3	96	47.2	1	4	90	0.00	30.038 
08:00	48.6	48.6	48.6	96	47.5	1	4	90	0.00	30.044 
08:05	48.8	48.8	48.8	96	47.7	1	4	90	0.00	30.044 
08:10	48.9	48.9	48.9	96	47.8	1	4	90	0.00	30.044 
08:15	49.2	49.2	49.2	96	48.1	1	3	90	0.00	30.044 
08:20	49.4	49.4	49.4	96	48.3	1	4	90	0.00	30.044 
08:25	49.6	49.6	49.6	96	48.5	2	5	90	0.00	30.044 
08:30	49.8	49.8	49.8	96	48.7	0	2	90	0.00	30.052 
08:35	50.1	50.1	50.1	96	49.0	0	2	90	0.00	30.052 
08:40	50.2	50.2	50.2	96	49.1	1	2	90	0.00	30.052 
08:45	50.4	50.4	50.4	96	49.3	1	4	90	0.00	30.050 
08:50	50.4	50.4	50.4	96	49.3	1	4	135	0.00	30.050 
08:55	50.5	50.5	50.5	96	49.4	2	4	90	0.00	30.050 
09:00	50.8	50.8	50.8	96	49.7	2	4	90	0.00	30.046 
09:05	51.0	51.0	51.0	96	49.9	1	4	90	0.00	30.046 
09:10	51.1	51.1	51.1	96	50.0	1	5	90	0.00	30.046 
09:15	51.3	51.3	51.3	96	50.2	2	5	68	0.00	30.047 
09:20	51.4	51.4	51.4	96	50.3	2	4	112	0.00	30.047 
09:25	51.6	51.6	51.6	96	50.5	2	5	90	0.00	30.047 
09:30	51.6	51.6	51.6	96	50.5	3	5	90	0.00	30.036 
09:35	51.7	51.7	51.7	96	50.6	3	6	90	0.00	30.036 
09:40	51.9	51.9	51.9	96	50.8	3	5	90	0.00	30.036 
09:45	52.0	52.0	52.0	96	50.9	3	5	68	0.00	30.020 
09:50	52.2	52.2	52.2	96	51.1	3	5	68	0.00	30.020 
09:55	52.5	52.5	52.5	96	51.4	2	5	112	0.00	30.020 
10:00	52.6	52.6	52.6	97	51.8	2	5	112	0.00	30.015 
10:05	52.9	52.9	52.9	97	52.1	3	5	90	0.00	30.015 
10:10	53.1	53.1	53.1	97	52.3	2	5	90	0.00	30.015 
10:15	53.2	53.2	53.2	97	52.4	1	3	112	0.00	30.025 
10:20	53.5	53.5	53.5	97	52.7	1	4	112	0.00	30.025 
10:25	53.6	53.6	53.6	97	52.8	2	5	90	0.00	30.025 
10:30	53.8	53.8	53.8	97	53.0	1	3	90	0.00	30.021 
10:35	54.1	54.1	54.1	97	53.3	1	4	90	0.00	30.021 
10:40	54.2	54.2	54.2	97	53.4	2	4	90	0.00	30.021 
10:45	54.5	54.5	54.5	97	53.7	1	3	90	0.00	30.017 
10:50	54.8	54.8	54.8	97	54.0	0	2	90	0.00	30.017 
10:55	55.1	55.1	55.1	97	54.3	1	4	90	0.00	30.017 
11:00	55.1	55.1	55.1	97	54.3	2	4	90	0.00	30.015 
11:05	55.4	55.4	55.4	97	54.6	2	5	90	0.00	30.015 
11:10	55.7	55.7	55.7	97	54.9	1	3	90	0.00	30.015 
11:15	56.0	56.0	56.0	97	55.2	2	5	90	0.00	30.007 
11:20	56.3	56.3	56.3	97	55.5	1	5	90	0.00	30.007 
11:25	56.6	56.6	56.6	97	55.8	0	2	90	0.00	30.007 
11:30	56.9	56.9	56.9	97	56.1	2	5	90	0.00	30.002 
11:35	57.3	57.3	57.3	97	56.5	1	4	90	0.00	30.002 
11:40	58.0	58.0	58.0	97	57.2	2	5	90	0.00	30.002 
11:45	59.0	59.0	59.0	97	58.1	2	4	90	0.00	29.997 
11:50	59.9	59.9	59.9	97	59.0	2	5	90	0.00	29.997 
11:55	60.2	60.2	60.2	97	59.3	2	4	90	0.00	29.997 
12:00	61.0	61.0	61.0	97	60.1	2	6	112	0.00	29.991 
12:05	61.3	61.3	61.3	97	60.4	2	5	68	0.00	29.991 
12:10	61.8	61.8	61.8	96	60.6	1	3	68	0.00	29.991 
12:15	62.4	62.4	62.4	96	61.2	1	4	68	0.00	29.987 
12:20	63.4	63.4	63.4	96	62.2	1	4	90	0.00	29.987 
12:25	64.0	64.0	64.0	95	62.5	2	5	90	0.00	29.987 
12:30	64.5	64.5	64.5	94	62.7	2	4	112	0.00	29.978 
12:35	64.7	64.7	64.7	93	62.6	1	3	112	0.00	29.978 
12:40	65.0	65.0	65.0	93	62.9	1	4	112	0.00	29.978 
12:45	65.6	65.6	65.6	92	63.2	2	4	90	0.00	29.969 
12:50	65.6	65.6	65.6	91	62.9	1	4	135	0.00	29.969 
12:55	65.2	65.2	65.2	91	62.5	1	3	112	0.00	29.969 
13:00	65.0	65.0	65.0	91	62.3	2	5	90	0.00	29.963 
13:05	65.5	65.5	65.5	92	63.1	1	4	90	0.00	29.963 
13:10	66.0	66.0	66.0	92	63.6	1	2	90	0.00	29.963 
13:15	66.4	66.4	66.4	92	64.0	0	1	90	0.00	29.957 
13:20	66.9	66.9	66.9	92	64.5	0	2	90	0.00	29.957 
13:25	67.6	67.6	67.6	92	65.2	0	1	90	0.00	29.957 
13:30	68.8	68.8	68.8	92	66.4	0	2	90	0.00	29.952 
13:35	70.8	70.8	70.8	91	68.0	2	6	270	0.00	29.952 
13:40	73.2	73.2	73.2	86	68.7	3	10	248	0.00	29.952 
13:45	75.1	75.1	75.7	80	68.5	3	7	270	0.00	29.935 
13:50	76.7	76.7	78.2	77	68.9	2	6	292	0.00	29.935 
13:55	77.6	77.6	79.6	74	68.6	1	5	270	0.00	29.935 
14:00	77.6	77.6	79.5	70	67.0	4	8	270	0.00	29.933 
14:05	77.4	77.4	79.3	71	67.2	4	10	248	0.00	29.933 
14:10	77.2	77.2	79.0	71	67.0	2	6	248	0.00	29.933 
14:15	77.0	77.0	78.8	71	66.9	3	10	270	0.00	29.929 
14:20	76.8	76.8	78.5	71	66.7	3	9	248	0.00	29.929 
14:25	76.8	76.8	78.5	70	66.3	3	11	270	0.00	29.929 
14:30	77.4	77.4	79.3	70	66.8	3	6	248	0.00	29.923 
14:35	77.7	77.7	79.6	69	66.7	3	9	248	0.00	29.923 
14:40	77.7	77.7	79.6	69	66.7	4	8	270	0.00	29.923 
14:45	78.3	78.3	80.4	69	67.3	3	6	248	0.00	29.921 
14:50	78.8	78.8	80.9	67	66.9	4	9	248	0.00	29.921 
14:55	79.6	79.6	82.2	69	68.5	2	6	270	0.00	29.921 
15:00	80.3	80.3	82.7	64	67.0	3	6	270	0.00	29.916 
15:05	80.1	80.1	82.0	61	65.4	4	14	270	0.00	29.916 
15:10	80.3	80.3	82.3	61	65.6	4	11	270	0.00	29.916 
15:15	80.9	80.9	83.2	62	66.6	4	14	270	0.00	29.909 
15:20	81.1	81.1	83.0	59	65.4	4	10	270	0.00	29.909 
15:25	81.2	81.2	83.2	59	65.5	4	14	270	0.00	29.909 
15:30	81.4	81.4	83.3	58	65.2	4	10	270	0.00	29.888 
15:35	81.6	81.6	83.5	58	65.4	3	7	270	0.00	29.888 
15:40	82.0	82.0	84.2	59	66.2	2	5	248	0.00	29.888 
15:45	82.2	82.2	84.3	58	65.9	4	7	270	0.00	29.864 
15:50	82.0	82.0	83.7	56	64.7	4	13	270	0.00	29.864 
15:55	81.8	81.8	83.3	55	64.0	4	11	270	0.00	29.864 
16:00	82.0	82.0	83.7	56	64.7	3	11	292	0.00	29.854 
16:05	82.4	82.4	84.1	55	64.6	3	13	270	0.00	29.854 
16:10	82.4	82.4	84.2	56	65.1	3	10	270	0.00	29.854 
16:15	82.6	82.6	84.3	55	64.8	3	9	248	0.00	29.856 
16:20	82.4	82.4	84.2	56	65.1	3	9	270	0.00	29.856 
16:25	81.6	81.6	82.8	53	62.8	4	11	248	0.00	29.856 
16:30	81.4	81.4	82.4	52	62.1	5	12	270	0.00	29.868 
16:35	81.8	81.8	83.2	54	63.5	5	11	270	0.00	29.868 
16:40	82.0	82.0	83.1	52	62.6	4	11	248	0.00	29.868 
16:45	82.0	82.0	82.9	51	62.1	4	13	248	0.00	29.872 
16:50	81.8	81.8	83.0	53	63.0	4	12	270	0.00	29.872 
16:55	81.1	81.1	82.2	53	62.3	3	10	270	0.00	29.872 
17:00	80.7	80.7	81.9	54	62.5	3	9	270	0.00	29.886 
17:05	80.1	80.1	81.2	53	61.4	4	10	248	0.00	29.886 
17:10	79.9	79.9	81.0	53	61.2	2	5	248	0.00	29.886 
17:15	79.9	79.9	81.1	54	61.7	2	5	270	0.00	29.887 
17:20	79.9	79.9	81.0	53	61.2	3	7	248	0.00	29.887 
17:25	79.9	79.9	81.0	53	61.2	2	8	292	0.00	29.887 
17:30	79.8	79.8	80.8	52	60.6	3	11	270	0.00	29.901 
17:35	79.9	79.9	81.0	53	61.2	2	6	270	0.00	29.901 
17:40	80.1	80.1	81.1	52	60.9	3	12	248	0.00	29.901 
17:45	80.3	80.3	81.3	52	61.0	3	11	248	0.00	29.902 
17:50	80.5	80.5	81.5	52	61.2	2	6	270	0.00	29.902 
17:55	80.7	80.7	81.9	54	62.5	2	7	270	0.00	29.902 
18:00	80.9	80.9	81.9	52	61.6	2	7	270	0.00	29.901 
18:05	80.7	80.7	81.7	52	61.4	4	14	248	0.00	29.901 
18:10	80.3	80.3	81.5	54	62.1	1	5	248	0.00	29.901 
18:15	79.9	79.9	81.0	53	61.2	2	5	270	0.00	29.913 
18:20	79.8	79.8	80.9	53	61.1	2	7	248	0.00	29.913 
18:25	79.8	79.8	81.0	54	61.7	2	5	270	0.00	29.913 
18:30	79.8	79.8	81.0	54	61.7	2	5	248	0.00	29.920 
18:35	79.9	79.9	81.1	54	61.7	2	4	248	0.00	29.920 
18:40	80.1	80.1	81.3	54	61.9	2	5	248	0.00	29.920 
18:45	80.5	80.5	81.5	52	61.2	3	7	270	0.00	29.932 
18:50	80.7	80.7	81.7	52	61.4	3	6	248	0.00	29.932 
18:55	80.7	80.7	81.8	53	62.0	2	5	248	0.00	29.932 
19:00	80.5	80.5	81.5	52	61.2	4	11	270	0.00	29.934 
19:05	80.5	80.5	81.5	52	61.2	3	7	248	0.00	29.934 
19:10	79.9	79.9	80.8	51	60.1	3	10	248	0.00	29.934 
19:15	79.9	79.9	80.9	52	60.7	3	9	248	0.00	29.946 
19:20	79.9	79.9	80.8	51	60.1	4	12	270	0.00	29.946 
19:25	79.9	79.9	80.8	51	60.1	3	9	270	0.00	29.946 
19:30	79.8	79.8	80.7	51	60.0	2	5	248	0.00	29.949 
19:35	79.6	79.6	80.9	55	62.0	1	5	270	0.00	29.949 
19:40	79.2	79.2	81.1	62	65.0	2	7	292	0.00	29.949 
19:45	78.6	78.6	80.1	58	62.6	3	7	225	0.00	29.956 
19:50	78.6	78.6	79.8	52	59.5	3	9	270	0.00	29.956 
19:55	78.6	78.6	79.6	49	57.8	3	7	270	0.00	29.956 
20:00	78.6	78.6	79.5	48	57.2	3	7	270	0.00	29.968 
20:05	78.6	78.6	79.5	48	57.2	2	5	270	0.00	29.968 
20:10	78.5	78.5	79.4	47	56.6	3	7	270	0.00	29.968 
20:15	78.5	78.5	79.4	46	56.0	3	7	270	0.00	29.970 
20:20	78.5	78.5	79.4	47	56.6	3	7	270	0.00	29.970 
20:25	78.3	78.3	79.3	47	56.4	3	6	270	0.00	29.970 
20:30	77.9	77.9	79.0	47	56.0	3	9	270	0.00	29.977 
20:35	77.6	77.6	78.9	48	56.3	2	5	270	0.00	29.977 
20:40	77.0	77.0	78.6	50	56.9	2	5	270	0.00	29.977 
20:45	76.8	76.8	78.5	50	56.7	2	7	270	0.00	29.986 
20:50	76.5	76.5	78.3	50	56.5	1	5	270	0.00	29.986 
20:55	76.5	76.5	78.3	51	57.0	2	5	248	0.00	29.986 
21:00	76.3	76.3	78.2	51	56.8	2	6	270	0.00	29.996 
21:05	76.1	76.1	78.1	52	57.2	1	4	270	0.00	29.996 
21:10	76.0	76.0	78.1	52	57.1	1	3	270	0.00	29.996 
21:15	75.8	75.8	78.0	52	56.9	2	4	270	0.00	29.997 
21:20	75.8	75.8	78.0	53	57.4	1	4	248	0.00	29.997 
21:25	75.6	75.6	77.9	53	57.2	1	3	248	0.00	29.997 
21:30	75.4	75.4	77.8	54	57.6	1	3	248	0.00	29.997 
21:35	75.3	75.3	77.7	54	57.5	1	3	248	0.00	29.997 
21:40	75.3	75.3	77.7	54	57.5	1	4	248	0.00	29.997 
21:45	75.1	75.1	77.6	55	57.8	1	4	248	0.00	30.007 
21:50	75.1	75.1	77.6	55	57.8	2	4	225	0.00	30.007 
21:55	75.1	75.1	77.6	55	57.8	2	6	248	0.00	30.007 
22:00	75.1	75.1	77.6	56	58.3	1	3	315	0.00	30.009 
22:05	74.9	74.9	74.9	56	58.1	1	3	315	0.00	30.009 
22:10	74.6	74.6	74.6	57	58.3	1	3	270	0.00	30.009 
22:15	74.4	74.4	74.4	58	58.6	1	3	270	0.00	30.010 
22:20	74.2	74.2	74.2	58	58.5	1	3	270	0.00	30.010 
22:25	74.0	74.0	74.0	59	58.7	1	3	270	0.00	30.010 
22:30	73.9	73.9	73.9	60	59.1	1	4	270	0.00	30.009 
22:35	73.7	73.7	73.7	61	59.4	2	4	315	0.00	30.009 
22:40	73.5	73.5	73.5	62	59.7	2	6	292	0.00	30.009 
22:45	73.3	73.3	73.3	62	59.5	2	5	292	0.00	30.014 
22:50	73.2	73.2	73.2	63	59.8	2	5	270	0.00	30.014 
22:55	73.0	73.0	73.0	64	60.1	1	4	270	0.00	30.014 
23:00	72.7	72.7	72.7	65	60.2	2	4	270	0.00	30.024 
23:05	72.5	72.5	72.5	65	60.0	0	2	270	0.00	30.024 
23:10	72.1	72.1	72.1	65	59.7	1	3	270	0.00	30.024 
23:15	71.8	71.8	71.8	66	59.8	0	2	270	0.00	30.032 
23:20	71.6	71.6	71.6	68	60.5	0	2	270	0.00	30.032 
23:25	71.1	71.1	71.1	71	61.2	0	3	270	0.00	30.032 
23:30	70.4	70.4	70.4	74	61.7	0	3	270	0.00	30.044 
23:35	69.8	69.8	69.8	78	62.6	0	2	270	0.00	30.044 
23:40	69.3	69.3	69.3	81	63.2	1	4	270	0.00	30.044 
23:45	68.6	68.6	68.6	83	63.2	1	4	248	0.00	30.040 
23:50	68.1	68.1	68.1	85	63.4	1	3	248	0.00	30.040 
23:55	67.8	67.8	67.8	85	63.1	0	3	248	0.00	30.040 

CoCoRaHS
IN-AL-39
A2 Web Hosting
Creative Commons License
GoDaddy
search engine by freefind advanced

loaded 2018-11-16 11:22:41 • last modified 2010-11-18 10:43:29
Privacy PolicyDisclaimer
• wx.awcolley.com is powered by PmWiki v.2002016 •
• all content (unless otherwise noted) © 2018 A W Colley